sensor_id;sensor_type;location;lat;lon;timestamp;pressure;altitude;pressure_sealevel;temperature;humidity
62849;BME280;48941;49.516;8.286;2023-08-17T00:00:59;100547.00;;;19.93;100.00
62849;BME280;48941;49.516;8.286;2023-08-17T00:03:28;100551.25;;;19.87;100.00
62849;BME280;48941;49.516;8.286;2023-08-17T00:05:56;100553.97;;;19.87;100.00
62849;BME280;48941;49.516;8.286;2023-08-17T00:08:24;100553.28;;;19.85;100.00
62849;BME280;48941;49.516;8.286;2023-08-17T00:10:52;100544.72;;;19.81;100.00
62849;BME280;48941;49.516;8.286;2023-08-17T00:13:20;100543.41;;;19.77;100.00
62849;BME280;48941;49.516;8.286;2023-08-17T00:15:48;100546.94;;;19.78;100.00
62849;BME280;48941;49.516;8.286;2023-08-17T00:18:16;100550.31;;;19.80;100.00
62849;BME280;48941;49.516;8.286;2023-08-17T00:20:45;100559.41;;;19.79;100.00
62849;BME280;48941;49.516;8.286;2023-08-17T00:23:13;100549.47;;;19.79;100.00
62849;BME280;48941;49.516;8.286;2023-08-17T00:25:41;100546.56;;;19.81;100.00
62849;BME280;48941;49.516;8.286;2023-08-17T00:28:09;100533.44;;;19.78;100.00
62849;BME280;48941;49.516;8.286;2023-08-17T00:30:36;100543.41;;;19.77;100.00
62849;BME280;48941;49.516;8.286;2023-08-17T00:33:05;100540.88;;;19.76;100.00
62849;BME280;48941;49.516;8.286;2023-08-17T00:35:33;100536.47;;;19.75;100.00
62849;BME280;48941;49.516;8.286;2023-08-17T00:38:02;100531.56;;;19.78;100.00
62849;BME280;48941;49.516;8.286;2023-08-17T00:40:30;100533.06;;;19.81;100.00
62849;BME280;48941;49.516;8.286;2023-08-17T00:42:58;100529.69;;;19.79;100.00
62849;BME280;48941;49.516;8.286;2023-08-17T00:45:26;100524.28;;;19.79;100.00
62849;BME280;48941;49.516;8.286;2023-08-17T00:47:56;100525.66;;;19.75;100.00
62849;BME280;48941;49.516;8.286;2023-08-17T00:50:24;100520.28;;;19.75;100.00
62849;BME280;48941;49.516;8.286;2023-08-17T00:52:53;100518.25;;;19.68;100.00
62849;BME280;48941;49.516;8.286;2023-08-17T00:55:24;100527.41;;;19.67;100.00
62849;BME280;48941;49.516;8.286;2023-08-17T00:57:52;100527.03;;;19.70;100.00
62849;BME280;48941;49.516;8.286;2023-08-17T01:00:20;100516.38;;;19.69;100.00
62849;BME280;48941;49.516;8.286;2023-08-17T01:02:49;100519.59;;;19.73;100.00
62849;BME280;48941;49.516;8.286;2023-08-17T01:05:17;100523.84;;;19.67;100.00
62849;BME280;48941;49.516;8.286;2023-08-17T01:07:45;100520.47;;;19.65;100.00
62849;BME280;48941;49.516;8.286;2023-08-17T01:10:13;100525.03;;;19.64;100.00
62849;BME280;48941;49.516;8.286;2023-08-17T01:12:47;100523.84;;;19.67;100.00
62849;BME280;48941;49.516;8.286;2023-08-17T01:15:19;100524.03;;;19.65;100.00
62849;BME280;48941;49.516;8.286;2023-08-17T01:17:53;100527.25;;;19.61;100.00
62849;BME280;48941;49.516;8.286;2023-08-17T01:20:23;100528.78;;;19.63;100.00
62849;BME280;48941;49.516;8.286;2023-08-17T01:22:52;100515.44;;;19.62;100.00
62849;BME280;48941;49.516;8.286;2023-08-17T01:25:24;100521.69;;;19.62;100.00
62849;BME280;48941;49.516;8.286;2023-08-17T01:27:52;100516.66;;;19.59;100.00
62849;BME280;48941;49.516;8.286;2023-08-17T01:30:20;100514.00;;;19.51;100.00
62849;BME280;48941;49.516;8.286;2023-08-17T01:32:51;100528.03;;;19.46;100.00
62849;BME280;48941;49.516;8.286;2023-08-17T01:35:28;100518.41;;;19.44;100.00
62849;BME280;48941;49.516;8.286;2023-08-17T01:37:59;100513.84;;;19.44;100.00
62849;BME280;48941;49.516;8.286;2023-08-17T01:40:32;100505.09;;;19.42;100.00
62849;BME280;48941;49.516;8.286;2023-08-17T01:43:02;100504.75;;;19.45;100.00
62849;BME280;48941;49.516;8.286;2023-08-17T01:45:30;100499.34;;;19.45;100.00
62849;BME280;48941;49.516;8.286;2023-08-17T01:47:58;100493.06;;;19.45;100.00
62849;BME280;48941;49.516;8.286;2023-08-17T01:50:26;100495.97;;;19.43;100.00
62849;BME280;48941;49.516;8.286;2023-08-17T01:52:53;100502.38;;;19.42;100.00
62849;BME280;48941;49.516;8.286;2023-08-17T01:55:22;100496.50;;;19.39;100.00
62849;BME280;48941;49.516;8.286;2023-08-17T01:57:51;100503.59;;;19.40;100.00
62849;BME280;48941;49.516;8.286;2023-08-17T02:00:19;100490.75;;;19.42;100.00
62849;BME280;48941;49.516;8.286;2023-08-17T02:02:47;100489.72;;;19.43;100.00
62849;BME280;48941;49.516;8.286;2023-08-17T02:05:15;100492.25;;;19.44;100.00
62849;BME280;48941;49.516;8.286;2023-08-17T02:07:42;100486.00;;;19.44;100.00
62849;BME280;48941;49.516;8.286;2023-08-17T02:10:10;100486.56;;;19.39;100.00
62849;BME280;48941;49.516;8.286;2023-08-17T02:12:38;100489.25;;;19.39;100.00
62849;BME280;48941;49.516;8.286;2023-08-17T02:15:09;100487.38;;;19.40;100.00
62849;BME280;48941;49.516;8.286;2023-08-17T02:17:37;100481.31;;;19.38;100.00
62849;BME280;48941;49.516;8.286;2023-08-17T02:20:06;100481.19;;;19.31;100.00
62849;BME280;48941;49.516;8.286;2023-08-17T02:22:35;100484.25;;;19.28;100.00
62849;BME280;48941;49.516;8.286;2023-08-17T02:25:04;100479.19;;;19.25;100.00
62849;BME280;48941;49.516;8.286;2023-08-17T02:27:32;100480.22;;;19.24;100.00
62849;BME280;48941;49.516;8.286;2023-08-17T02:30:00;100478.34;;;19.24;100.00
62849;BME280;48941;49.516;8.286;2023-08-17T02:32:29;100484.59;;;19.25;100.00
62849;BME280;48941;49.516;8.286;2023-08-17T02:34:57;100476.03;;;19.21;100.00
62849;BME280;48941;49.516;8.286;2023-08-17T02:37:25;100476.19;;;19.20;100.00
62849;BME280;48941;49.516;8.286;2023-08-17T02:39:53;100474.16;;;19.22;100.00
62849;BME280;48941;49.516;8.286;2023-08-17T02:42:21;100468.94;;;19.20;100.00
62849;BME280;48941;49.516;8.286;2023-08-17T02:44:49;100472.47;;;19.21;100.00
62849;BME280;48941;49.516;8.286;2023-08-17T02:47:17;100469.59;;;19.22;100.00
62849;BME280;48941;49.516;8.286;2023-08-17T02:49:46;100477.69;;;19.22;100.00
62849;BME280;48941;49.516;8.286;2023-08-17T02:52:15;100471.63;;;19.20;100.00
62849;BME280;48941;49.516;8.286;2023-08-17T02:54:43;100466.22;;;19.20;100.00
62849;BME280;48941;49.516;8.286;2023-08-17T02:57:12;100469.97;;;19.19;100.00
62849;BME280;48941;49.516;8.286;2023-08-17T02:59:41;100468.63;;;19.15;100.00
62849;BME280;48941;49.516;8.286;2023-08-17T03:02:08;100473.19;;;19.15;100.00
62849;BME280;48941;49.516;8.286;2023-08-17T03:04:36;100471.50;;;19.14;100.00
62849;BME280;48941;49.516;8.286;2023-08-17T03:07:06;100462.41;;;19.06;100.00
62849;BME280;48941;49.516;8.286;2023-08-17T03:09:33;100472.72;;;19.03;100.00
62849;BME280;48941;49.516;8.286;2023-08-17T03:12:01;100474.09;;;18.99;100.00
62849;BME280;48941;49.516;8.286;2023-08-17T03:14:29;100481.34;;;18.98;100.00
62849;BME280;48941;49.516;8.286;2023-08-17T03:16:57;100481.53;;;18.97;100.00
62849;BME280;48941;49.516;8.286;2023-08-17T03:19:25;100479.03;;;18.95;100.00
62849;BME280;48941;49.516;8.286;2023-08-17T03:21:53;100481.53;;;18.97;100.00
62849;BME280;48941;49.516;8.286;2023-08-17T03:24:22;100486.75;;;18.98;100.00
62849;BME280;48941;49.516;8.286;2023-08-17T03:26:50;100476.78;;;18.99;100.00
62849;BME280;48941;49.516;8.286;2023-08-17T03:29:18;100478.50;;;19.00;100.00
62849;BME280;48941;49.516;8.286;2023-08-17T03:31:45;100485.25;;;18.96;100.00
62849;BME280;48941;49.516;8.286;2023-08-17T03:34:13;100481.72;;;18.95;100.00
62849;BME280;48941;49.516;8.286;2023-08-17T03:36:41;100480.88;;;18.95;100.00
62849;BME280;48941;49.516;8.286;2023-08-17T03:39:09;100483.72;;;18.93;100.00
62849;BME280;48941;49.516;8.286;2023-08-17T03:41:38;100482.91;;;18.93;100.00
62849;BME280;48941;49.516;8.286;2023-08-17T03:44:06;100476.66;;;18.92;100.00
62849;BME280;48941;49.516;8.286;2023-08-17T03:46:35;100477.00;;;18.89;100.00
62849;BME280;48941;49.516;8.286;2023-08-17T03:49:03;100470.28;;;18.85;100.00
62849;BME280;48941;49.516;8.286;2023-08-17T03:51:31;100476.88;;;18.82;100.00
62849;BME280;48941;49.516;8.286;2023-08-17T03:53:59;100475.50;;;18.78;100.00
62849;BME280;48941;49.516;8.286;2023-08-17T03:56:27;100479.25;;;18.77;100.00
62849;BME280;48941;49.516;8.286;2023-08-17T03:58:56;100477.53;;;18.76;100.00
62849;BME280;48941;49.516;8.286;2023-08-17T04:01:24;100482.63;;;18.79;100.00
62849;BME280;48941;49.516;8.286;2023-08-17T04:03:52;100474.00;;;18.76;100.00
62849;BME280;48941;49.516;8.286;2023-08-17T04:06:20;100479.25;;;18.69;100.00
62849;BME280;48941;49.516;8.286;2023-08-17T04:08:48;100477.06;;;18.64;100.00
62849;BME280;48941;49.516;8.286;2023-08-17T04:11:16;100477.75;;;18.66;100.00
62849;BME280;48941;49.516;8.286;2023-08-17T04:13:43;100485.50;;;18.69;100.00
62849;BME280;48941;49.516;8.286;2023-08-17T04:16:13;100491.06;;;18.68;100.00
62849;BME280;48941;49.516;8.286;2023-08-17T04:18:41;100486.50;;;18.68;100.00
62849;BME280;48941;49.516;8.286;2023-08-17T04:21:08;100490.22;;;18.67;100.00
62849;BME280;48941;49.516;8.286;2023-08-17T04:23:36;100491.59;;;18.63;100.00
62849;BME280;48941;49.516;8.286;2023-08-17T04:26:04;100496.13;;;18.63;100.00
62849;BME280;48941;49.516;8.286;2023-08-17T04:28:32;100496.97;;;18.63;100.00
62849;BME280;48941;49.516;8.286;2023-08-17T04:31:00;100510.81;;;18.60;100.00
62849;BME280;48941;49.516;8.286;2023-08-17T04:33:29;100516.72;;;18.56;100.00
62849;BME280;48941;49.516;8.286;2023-08-17T04:35:57;100506.59;;;18.58;100.00
62849;BME280;48941;49.516;8.286;2023-08-17T04:38:25;100513.66;;;18.59;100.00
62849;BME280;48941;49.516;8.286;2023-08-17T04:40:53;100516.34;;;18.59;100.00
62849;BME280;48941;49.516;8.286;2023-08-17T04:43:21;100513.84;;;18.57;100.00
62849;BME280;48941;49.516;8.286;2023-08-17T04:45:49;100514.34;;;18.61;100.00
62849;BME280;48941;49.516;8.286;2023-08-17T04:48:16;100516.53;;;18.65;100.00
62849;BME280;48941;49.516;8.286;2023-08-17T04:50:46;100511.81;;;18.67;100.00
62849;BME280;48941;49.516;8.286;2023-08-17T04:53:14;100509.09;;;18.67;100.00
62849;BME280;48941;49.516;8.286;2023-08-17T04:55:41;100514.50;;;18.67;100.00
62849;BME280;48941;49.516;8.286;2023-08-17T04:58:09;100522.41;;;18.69;100.00
62849;BME280;48941;49.516;8.286;2023-08-17T05:00:37;100512.47;;;18.69;100.00
62849;BME280;48941;49.516;8.286;2023-08-17T05:03:05;100518.53;;;18.71;100.00
62849;BME280;48941;49.516;8.286;2023-08-17T05:05:42;100533.03;;;18.70;100.00
62849;BME280;48941;49.516;8.286;2023-08-17T05:08:11;100520.03;;;18.74;100.00
62849;BME280;48941;49.516;8.286;2023-08-17T05:10:40;100524.09;;;18.70;100.00
62849;BME280;48941;49.516;8.286;2023-08-17T05:13:08;100520.03;;;18.74;100.00
62849;BME280;48941;49.516;8.286;2023-08-17T05:15:36;100515.84;;;18.71;100.00
62849;BME280;48941;49.516;8.286;2023-08-17T05:18:04;100525.97;;;18.69;100.00
62849;BME280;48941;49.516;8.286;2023-08-17T05:20:32;100527.47;;;18.72;100.00
62849;BME280;48941;49.516;8.286;2023-08-17T05:23:00;100534.38;;;18.75;100.00
62849;BME280;48941;49.516;8.286;2023-08-17T05:25:29;100545.16;;;18.75;100.00
62849;BME280;48941;49.516;8.286;2023-08-17T05:27:57;100549.19;;;18.79;100.00
62849;BME280;48941;49.516;8.286;2023-08-17T05:30:25;100559.31;;;18.85;100.00
62849;BME280;48941;49.516;8.286;2023-08-17T05:32:53;100556.28;;;18.88;100.00
62849;BME280;48941;49.516;8.286;2023-08-17T05:35:21;100562.19;;;18.92;100.00
62849;BME280;48941;49.516;8.286;2023-08-17T05:37:49;100562.19;;;18.92;100.00
62849;BME280;48941;49.516;8.286;2023-08-17T05:40:17;100551.69;;;18.97;100.00
62849;BME280;48941;49.516;8.286;2023-08-17T05:42:46;100564.19;;;18.98;100.00
62849;BME280;48941;49.516;8.286;2023-08-17T05:45:14;100560.97;;;19.02;100.00
62849;BME280;48941;49.516;8.286;2023-08-17T05:47:42;100557.25;;;19.03;100.00
62849;BME280;48941;49.516;8.286;2023-08-17T05:50:11;100544.59;;;19.04;100.00
62849;BME280;48941;49.516;8.286;2023-08-17T05:52:40;100543.41;;;19.06;100.00
62849;BME280;48941;49.516;8.286;2023-08-17T05:55:08;100550.66;;;19.06;100.00
62849;BME280;48941;49.516;8.286;2023-08-17T05:57:36;100548.47;;;19.09;100.00
62849;BME280;48941;49.516;8.286;2023-08-17T06:00:07;100545.06;;;19.16;100.00
62849;BME280;48941;49.516;8.286;2023-08-17T06:02:36;100552.28;;;19.23;100.00
62849;BME280;48941;49.516;8.286;2023-08-17T06:05:05;100551.09;;;19.26;100.00
62849;BME280;48941;49.516;8.286;2023-08-17T06:07:34;100552.59;;;19.28;100.00
62849;BME280;48941;49.516;8.286;2023-08-17T06:10:03;100556.97;;;19.29;100.00
62849;BME280;48941;49.516;8.286;2023-08-17T06:12:32;100561.19;;;19.32;100.00
62849;BME280;48941;49.516;8.286;2023-08-17T06:15:02;100570.63;;;19.36;100.00
62849;BME280;48941;49.516;8.286;2023-08-17T06:17:31;100563.00;;;19.40;100.00
62849;BME280;48941;49.516;8.286;2023-08-17T06:19:59;100557.09;;;19.36;100.00
62849;BME280;48941;49.516;8.286;2023-08-17T06:22:27;100558.09;;;19.43;100.00
62849;BME280;48941;49.516;8.286;2023-08-17T06:24:55;100557.06;;;19.44;100.00
62849;BME280;48941;49.516;8.286;2023-08-17T06:27:23;100550.84;;;19.44;100.00
62849;BME280;48941;49.516;8.286;2023-08-17T06:29:51;100559.22;;;19.49;100.00
62849;BME280;48941;49.516;8.286;2023-08-17T06:32:19;100564.78;;;19.56;100.00
62849;BME280;48941;49.516;8.286;2023-08-17T06:34:48;100574.88;;;19.62;100.00
62849;BME280;48941;49.516;8.286;2023-08-17T06:37:16;100563.53;;;19.66;100.00
62849;BME280;48941;49.516;8.286;2023-08-17T06:39:44;100570.13;;;19.72;100.00
62849;BME280;48941;49.516;8.286;2023-08-17T06:42:12;100559.97;;;19.74;100.00
62849;BME280;48941;49.516;8.286;2023-08-17T06:44:39;100572.09;;;19.78;100.00
62849;BME280;48941;49.516;8.286;2023-08-17T06:47:07;100574.47;;;19.81;100.00
62849;BME280;48941;49.516;8.286;2023-08-17T06:49:35;100570.38;;;19.85;100.00
62849;BME280;48941;49.516;8.286;2023-08-17T06:52:05;100574.03;;;19.93;100.00
62849;BME280;48941;49.516;8.286;2023-08-17T06:54:33;100573.84;;;19.94;100.00
62849;BME280;48941;49.516;8.286;2023-08-17T06:57:02;100570.16;;;19.95;100.00
62849;BME280;48941;49.516;8.286;2023-08-17T06:59:29;100567.38;;;20.03;100.00
62849;BME280;48941;49.516;8.286;2023-08-17T07:01:59;100565.50;;;20.04;100.00
62849;BME280;48941;49.516;8.286;2023-08-17T07:04:28;100570.53;;;20.07;100.00
62849;BME280;48941;49.516;8.286;2023-08-17T07:06:56;100568.69;;;20.07;100.00
62849;BME280;48941;49.516;8.286;2023-08-17T07:09:25;100569.63;;;20.15;100.00
62849;BME280;48941;49.516;8.286;2023-08-17T07:11:55;100565.94;;;20.16;100.00
62849;BME280;48941;49.516;8.286;2023-08-17T07:14:22;100562.84;;;20.19;100.00
62849;BME280;48941;49.516;8.286;2023-08-17T07:16:51;100563.97;;;20.24;100.00
62849;BME280;48941;49.516;8.286;2023-08-17T07:19:19;100557.19;;;20.28;100.00
62849;BME280;48941;49.516;8.286;2023-08-17T07:21:56;100557.09;;;20.37;100.00
62849;BME280;48941;49.516;8.286;2023-08-17T07:24:26;100549.13;;;20.43;100.00
62849;BME280;48941;49.516;8.286;2023-08-17T07:26:54;100560.59;;;20.45;99.67
62849;BME280;48941;49.516;8.286;2023-08-17T07:29:22;100571.69;;;20.50;100.00
62849;BME280;48941;49.516;8.286;2023-08-17T07:31:50;100573.00;;;20.55;99.64
62849;BME280;48941;49.516;8.286;2023-08-17T07:34:18;100573.34;;;20.60;99.48
62849;BME280;48941;49.516;8.286;2023-08-17T07:36:46;100569.91;;;20.66;98.88
62849;BME280;48941;49.516;8.286;2023-08-17T07:39:14;100578.09;;;20.73;99.62
62849;BME280;48941;49.516;8.286;2023-08-17T07:41:43;100573.00;;;20.78;98.98
62849;BME280;48941;49.516;8.286;2023-08-17T07:44:11;100571.41;;;20.83;98.79
62849;BME280;48941;49.516;8.286;2023-08-17T07:46:39;100577.31;;;20.87;98.78
62849;BME280;48941;49.516;8.286;2023-08-17T07:49:07;100580.94;;;20.94;98.88
62849;BME280;48941;49.516;8.286;2023-08-17T07:51:51;100578.88;;;20.96;97.71
62849;BME280;48941;49.516;8.286;2023-08-17T07:54:19;100577.47;;;21.00;97.54
62849;BME280;48941;49.516;8.286;2023-08-17T07:56:49;100583.00;;;21.07;98.02
62849;BME280;48941;49.516;8.286;2023-08-17T07:59:16;100581.78;;;21.09;97.28
62849;BME280;48941;49.516;8.286;2023-08-17T08:01:44;100586.53;;;21.07;96.59
62849;BME280;48941;49.516;8.286;2023-08-17T08:04:12;100581.31;;;21.06;96.38
62849;BME280;48941;49.516;8.286;2023-08-17T08:06:40;100583.66;;;21.09;95.96
62849;BME280;48941;49.516;8.286;2023-08-17T08:09:08;100572.25;;;21.14;95.50
62849;BME280;48941;49.516;8.286;2023-08-17T08:11:36;100565.44;;;21.18;95.47
62849;BME280;48941;49.516;8.286;2023-08-17T08:14:05;100566.53;;;21.23;95.55
62849;BME280;48941;49.516;8.286;2023-08-17T08:16:33;100577.00;;;21.26;95.09
62849;BME280;48941;49.516;8.286;2023-08-17T08:19:01;100575.03;;;21.35;95.28
62849;BME280;48941;49.516;8.286;2023-08-17T08:21:29;100579.88;;;21.40;94.47
62849;BME280;48941;49.516;8.286;2023-08-17T08:23:57;100575.09;;;21.42;93.93
62849;BME280;48941;49.516;8.286;2023-08-17T08:26:25;100573.06;;;21.44;93.57
62849;BME280;48941;49.516;8.286;2023-08-17T08:28:53;100570.19;;;21.45;93.28
62849;BME280;48941;49.516;8.286;2023-08-17T08:31:23;100563.06;;;21.44;93.63
62849;BME280;48941;49.516;8.286;2023-08-17T08:33:51;100566.66;;;21.45;93.61
62849;BME280;48941;49.516;8.286;2023-08-17T08:36:19;100570.00;;;21.47;93.44
62849;BME280;48941;49.516;8.286;2023-08-17T08:38:47;100576.16;;;21.56;93.64
62849;BME280;48941;49.516;8.286;2023-08-17T08:41:15;100575.84;;;21.65;93.49
62849;BME280;48941;49.516;8.286;2023-08-17T08:43:44;100577.13;;;21.70;92.46
62849;BME280;48941;49.516;8.286;2023-08-17T08:46:14;100581.97;;;21.74;92.38
62849;BME280;48941;49.516;8.286;2023-08-17T08:48:47;100569.94;;;21.77;90.84
62849;BME280;48941;49.516;8.286;2023-08-17T08:51:22;100567.09;;;21.85;91.02
62849;BME280;48941;49.516;8.286;2023-08-17T08:54:00;100574.25;;;21.93;90.77
62849;BME280;48941;49.516;8.286;2023-08-17T08:56:31;100573.88;;;21.96;90.29
62849;BME280;48941;49.516;8.286;2023-08-17T08:59:02;100574.97;;;22.01;90.11
62849;BME280;48941;49.516;8.286;2023-08-17T09:01:30;100572.97;;;22.10;89.34
62849;BME280;48941;49.516;8.286;2023-08-17T09:04:00;100575.34;;;22.20;88.99
62849;BME280;48941;49.516;8.286;2023-08-17T09:06:30;100570.88;;;22.27;89.21
62849;BME280;48941;49.516;8.286;2023-08-17T09:08:58;100567.09;;;22.28;88.99
62849;BME280;48941;49.516;8.286;2023-08-17T09:11:27;100562.38;;;22.37;87.95
62849;BME280;48941;49.516;8.286;2023-08-17T09:13:56;100562.09;;;22.53;87.96
62849;BME280;48941;49.516;8.286;2023-08-17T09:16:24;100571.31;;;22.59;86.58
62849;BME280;48941;49.516;8.286;2023-08-17T09:18:52;100558.81;;;22.64;86.62
62849;BME280;48941;49.516;8.286;2023-08-17T09:21:22;100571.25;;;22.80;86.15
62849;BME280;48941;49.516;8.286;2023-08-17T09:23:51;100576.56;;;22.95;85.43
62849;BME280;48941;49.516;8.286;2023-08-17T09:26:24;100576.09;;;23.13;83.36
62849;BME280;48941;49.516;8.286;2023-08-17T09:28:53;100562.78;;;23.25;82.86
62849;BME280;48941;49.516;8.286;2023-08-17T09:31:23;100560.97;;;23.45;83.23
62849;BME280;48941;49.516;8.286;2023-08-17T09:33:52;100558.50;;;23.57;81.89
62849;BME280;48941;49.516;8.286;2023-08-17T09:36:22;100557.28;;;23.66;80.97
62849;BME280;48941;49.516;8.286;2023-08-17T09:38:50;100567.94;;;23.68;81.28
62849;BME280;48941;49.516;8.286;2023-08-17T09:41:18;100564.63;;;23.73;80.15
62849;BME280;48941;49.516;8.286;2023-08-17T09:43:47;100564.44;;;23.81;79.66
62849;BME280;48941;49.516;8.286;2023-08-17T09:46:15;100558.81;;;23.96;79.50
62849;BME280;48941;49.516;8.286;2023-08-17T09:48:43;100564.50;;;24.21;78.42
62849;BME280;48941;49.516;8.286;2023-08-17T09:51:15;100564.69;;;24.46;77.06
62849;BME280;48941;49.516;8.286;2023-08-17T09:53:44;100561.78;;;24.68;74.39
62849;BME280;48941;49.516;8.286;2023-08-17T09:56:12;100569.94;;;24.81;74.81
62849;BME280;48941;49.516;8.286;2023-08-17T09:58:43;100564.25;;;24.96;74.63
62849;BME280;48941;49.516;8.286;2023-08-17T10:01:11;100563.38;;;25.02;73.33
62849;BME280;48941;49.516;8.286;2023-08-17T10:03:43;100562.31;;;25.23;73.26
62849;BME280;48941;49.516;8.286;2023-08-17T10:06:13;100563.06;;;25.43;71.48
62849;BME280;48941;49.516;8.286;2023-08-17T10:08:43;100554.59;;;25.58;72.39
62849;BME280;48941;49.516;8.286;2023-08-17T10:11:16;100554.78;;;25.63;70.26
62849;BME280;48941;49.516;8.286;2023-08-17T10:13:51;100550.41;;;25.62;70.68
62849;BME280;48941;49.516;8.286;2023-08-17T10:16:23;100549.94;;;25.66;69.93
62849;BME280;48941;49.516;8.286;2023-08-17T10:18:57;100549.81;;;25.86;69.95
62849;BME280;48941;49.516;8.286;2023-08-17T10:21:27;100540.50;;;26.00;69.83
62849;BME280;48941;49.516;8.286;2023-08-17T10:23:56;100540.34;;;26.20;69.05
62849;BME280;48941;49.516;8.286;2023-08-17T10:26:26;100539.75;;;26.43;67.25
62849;BME280;48941;49.516;8.286;2023-08-17T10:28:55;100543.38;;;26.62;66.87
62849;BME280;48941;49.516;8.286;2023-08-17T10:31:33;100540.81;;;26.86;65.66
62849;BME280;48941;49.516;8.286;2023-08-17T10:34:02;100532.47;;;26.99;65.33
62849;BME280;48941;49.516;8.286;2023-08-17T10:36:31;100543.50;;;27.11;64.84
62849;BME280;48941;49.516;8.286;2023-08-17T10:39:17;100536.88;;;27.18;64.82
62849;BME280;48941;49.516;8.286;2023-08-17T10:41:48;100553.13;;;27.32;63.70
62849;BME280;48941;49.516;8.286;2023-08-17T10:44:17;100535.19;;;27.36;63.16
62849;BME280;48941;49.516;8.286;2023-08-17T10:46:45;100534.53;;;27.40;63.43
62849;BME280;48941;49.516;8.286;2023-08-17T10:49:25;100534.81;;;27.51;63.52
62849;BME280;48941;49.516;8.286;2023-08-17T10:52:03;100530.59;;;27.67;62.19
62849;BME280;48941;49.516;8.286;2023-08-17T10:54:37;100536.78;;;27.74;62.31
62849;BME280;48941;49.516;8.286;2023-08-17T10:57:27;100535.16;;;27.85;61.91
62849;BME280;48941;49.516;8.286;2023-08-17T11:00:15;100541.16;;;27.93;62.44
62849;BME280;48941;49.516;8.286;2023-08-17T11:02:55;100539.56;;;28.16;61.67
62849;BME280;48941;49.516;8.286;2023-08-17T11:05:36;100535.25;;;28.32;60.65
62849;BME280;48941;49.516;8.286;2023-08-17T11:08:05;100535.75;;;28.40;59.56
62849;BME280;48941;49.516;8.286;2023-08-17T11:10:33;100529.09;;;28.48;59.66
62849;BME280;48941;49.516;8.286;2023-08-17T11:13:03;100521.88;;;28.54;59.46
62849;BME280;48941;49.516;8.286;2023-08-17T11:15:38;100523.50;;;28.67;59.14
62849;BME280;48941;49.516;8.286;2023-08-17T11:18:09;100523.28;;;28.68;58.25
62849;BME280;48941;49.516;8.286;2023-08-17T11:20:39;100528.25;;;28.83;57.87
62849;BME280;48941;49.516;8.286;2023-08-17T11:23:09;100527.06;;;28.91;57.48
62849;BME280;48941;49.516;8.286;2023-08-17T11:25:37;100524.16;;;28.97;57.21
62849;BME280;48941;49.516;8.286;2023-08-17T11:28:08;100522.63;;;29.13;56.73
62849;BME280;48941;49.516;8.286;2023-08-17T11:30:36;100529.97;;;29.25;56.26
62849;BME280;48941;49.516;8.286;2023-08-17T11:33:06;100539.81;;;29.37;55.67
62849;BME280;48941;49.516;8.286;2023-08-17T11:35:34;100537.97;;;29.55;54.92
62849;BME280;48941;49.516;8.286;2023-08-17T11:38:03;100541.06;;;29.58;54.29
62849;BME280;48941;49.516;8.286;2023-08-17T11:40:35;100548.19;;;29.59;54.92
62849;BME280;48941;49.516;8.286;2023-08-17T11:43:04;100550.28;;;29.52;55.40
62849;BME280;48941;49.516;8.286;2023-08-17T11:45:33;100555.41;;;29.49;56.42
62849;BME280;48941;49.516;8.286;2023-08-17T11:48:01;100550.97;;;29.19;56.83
62849;BME280;48941;49.516;8.286;2023-08-17T11:50:30;100540.38;;;28.99;59.20
62849;BME280;48941;49.516;8.286;2023-08-17T11:52:59;100545.88;;;28.99;59.36
62849;BME280;48941;49.516;8.286;2023-08-17T11:55:27;100540.59;;;29.09;58.96
62849;BME280;48941;49.516;8.286;2023-08-17T11:57:56;100543.47;;;29.26;58.07
62849;BME280;48941;49.516;8.286;2023-08-17T12:00:24;100548.06;;;29.37;56.43
62849;BME280;48941;49.516;8.286;2023-08-17T12:02:53;100536.56;;;29.52;56.76
62849;BME280;48941;49.516;8.286;2023-08-17T12:05:23;100537.66;;;29.80;56.59
62849;BME280;48941;49.516;8.286;2023-08-17T12:07:54;100543.50;;;30.01;56.90
62849;BME280;48941;49.516;8.286;2023-08-17T12:10:22;100548.31;;;30.27;55.59
62849;BME280;48941;49.516;8.286;2023-08-17T12:12:50;100548.50;;;30.37;53.88
62849;BME280;48941;49.516;8.286;2023-08-17T12:15:18;100551.84;;;30.56;55.19
62849;BME280;48941;49.516;8.286;2023-08-17T12:17:47;100557.88;;;30.75;54.77
62849;BME280;48941;49.516;8.286;2023-08-17T12:20:17;100563.06;;;30.89;54.76
62849;BME280;48941;49.516;8.286;2023-08-17T12:22:46;100559.31;;;30.78;53.44
62849;BME280;48941;49.516;8.286;2023-08-17T12:25:15;100554.84;;;30.55;53.59
62849;BME280;48941;49.516;8.286;2023-08-17T12:27:43;100533.44;;;30.23;54.35
62849;BME280;48941;49.516;8.286;2023-08-17T12:30:24;100532.28;;;30.02;56.02
62849;BME280;48941;49.516;8.286;2023-08-17T12:32:52;100509.09;;;29.81;56.88
62849;BME280;48941;49.516;8.286;2023-08-17T12:35:25;100493.47;;;29.53;58.53
62849;BME280;48941;49.516;8.286;2023-08-17T12:37:53;100483.78;;;29.33;58.61
62849;BME280;48941;49.516;8.286;2023-08-17T12:40:22;100484.94;;;29.09;61.23
62849;BME280;48941;49.516;8.286;2023-08-17T12:42:50;100478.31;;;28.93;61.72
62849;BME280;48941;49.516;8.286;2023-08-17T12:45:18;100478.94;;;28.71;62.53
62849;BME280;48941;49.516;8.286;2023-08-17T12:47:46;100478.63;;;28.56;62.92
62849;BME280;48941;49.516;8.286;2023-08-17T12:50:14;100467.16;;;28.35;64.44
62849;BME280;48941;49.516;8.286;2023-08-17T12:52:45;100471.09;;;28.16;65.11
62849;BME280;48941;49.516;8.286;2023-08-17T12:55:13;100470.81;;;27.94;65.74